Time;durP1;ratioP1;P1;durP2;ratioP2;P2;SDS_P1;SDS_P2;PMS_P1;PMS_P2;Temp;Humidity;BMP_temperature;BMP_pressure;BME280_temperature;BME280_humidity;BME280_pressure;Samples;Min_cycle;Max_cycle;Signal;HPM_P1;HPM_P2
2022/03/16 00:01:54;;;;;;;24.92;19.42;;;;;;;;;;5095993;28;20198;-63
2022/03/16 00:04:23;;;;;;;30.42;20.13;;;;;;;;;;5096189;28;20197;-64
2022/03/16 00:06:50;;;;;;;24.48;19.13;;;;;;;;;;5095727;28;20692;-64
2022/03/16 00:09:17;;;;;;;26.92;19.67;;;;;;;;;;5095799;28;20251;-64
2022/03/16 00:11:44;;;;;;;32.15;20.95;;;;;;;;;;5096037;28;20558;-64
2022/03/16 00:14:12;;;;;;;29.15;20.65;;;;;;;;;;5096000;28;20289;-63
2022/03/16 00:16:39;;;;;;;32.78;20.65;;;;;;;;;;5096006;28;20559;-64
2022/03/16 00:19:06;;;;;;;27.20;20.52;;;;;;;;;;5095965;28;20561;-63
2022/03/16 00:21:35;;;;;;;29.00;21.05;;;;;;;;;;5095423;28;20211;-64
2022/03/16 00:24:03;;;;;;;27.88;21.40;;;;;;;;;;5096067;28;20301;-64
2022/03/16 00:26:31;;;;;;;29.17;21.00;;;;;;;;;;5095467;28;20220;-64
2022/03/16 00:28:58;;;;;;;24.58;20.10;;;;;;;;;;5095637;28;20567;-64
2022/03/16 00:31:25;;;;;;;26.88;20.80;;;;;;;;;;5094515;28;20204;-64
2022/03/16 00:33:52;;;;;;;27.77;21.10;;;;;;;;;;5095674;28;20194;-64
2022/03/16 00:36:21;;;;;;;29.25;21.33;;;;;;;;;;5095699;28;20201;-63
2022/03/16 00:38:50;;;;;;;28.13;21.08;;;;;;;;;;5095562;28;20298;-64
2022/03/16 00:41:17;;;;;;;33.00;24.10;;;;;;;;;;5096180;28;20202;-64
2022/03/16 00:43:44;;;;;;;28.17;24.70;;;;;;;;;;5095088;28;20192;-64
2022/03/16 00:46:12;;;;;;;31.45;22.27;;;;;;;;;;5095434;28;20614;-64
2022/03/16 00:48:39;;;;;;;28.15;22.70;;;;;;;;;;5095407;28;20194;-64
2022/03/16 00:51:06;;;;;;;33.53;21.77;;;;;;;;;;5095886;28;20201;-64
2022/03/16 00:53:34;;;;;;;28.75;22.60;;;;;;;;;;5095113;28;20563;-63
2022/03/16 00:56:03;;;;;;;28.58;23.13;;;;;;;;;;5095574;28;20284;-63
2022/03/16 00:58:30;;;;;;;35.72;24.15;;;;;;;;;;5095121;28;20201;-63
2022/03/16 01:00:58;;;;;;;33.28;25.52;;;;;;;;;;5095183;28;20220;-63
2022/03/16 01:03:25;;;;;;;36.78;25.00;;;;;;;;;;5094705;28;20199;-63
2022/03/16 01:05:52;;;;;;;38.03;26.92;;;;;;;;;;5094747;28;20208;-63
2022/03/16 01:08:19;;;;;;;32.38;24.08;;;;;;;;;;5094862;28;20308;-64
2022/03/16 01:10:47;;;;;;;31.98;24.90;;;;;;;;;;5095056;28;20190;-63
2022/03/16 01:13:15;;;;;;;32.55;25.10;;;;;;;;;;5094923;28;20290;-64
2022/03/16 01:15:43;;;;;;;36.17;26.08;;;;;;;;;;5094943;28;20190;-64
2022/03/16 01:18:10;;;;;;;35.47;25.80;;;;;;;;;;5094817;28;20201;-64
2022/03/16 01:20:37;;;;;;;37.65;27.95;;;;;;;;;;5094795;28;20285;-64
2022/03/16 01:23:04;;;;;;;33.95;25.75;;;;;;;;;;5094590;28;20200;-63
2022/03/16 01:25:31;;;;;;;40.50;27.83;;;;;;;;;;5094463;28;20204;-63
2022/03/16 01:27:58;;;;;;;35.45;26.90;;;;;;;;;;5094464;28;20224;-64
2022/03/16 01:30:27;;;;;;;34.03;26.60;;;;;;;;;;5094636;28;20198;-63
2022/03/16 01:32:54;;;;;;;37.92;28.05;;;;;;;;;;5094602;28;20643;-63
2022/03/16 01:35:21;;;;;;;38.20;27.50;;;;;;;;;;5094315;28;20195;-63
2022/03/16 01:37:48;;;;;;;36.40;27.88;;;;;;;;;;5094478;28;20207;-64
2022/03/16 01:40:16;;;;;;;38.40;26.60;;;;;;;;;;5094135;28;20287;-64
2022/03/16 01:42:43;;;;;;;33.42;26.38;;;;;;;;;;5093716;28;20600;-64
2022/03/16 01:45:10;;;;;;;32.60;27.20;;;;;;;;;;5094669;28;20544;-63
2022/03/16 01:47:39;;;;;;;35.30;27.23;;;;;;;;;;5093894;28;20214;-63
2022/03/16 01:50:08;;;;;;;41.58;27.67;;;;;;;;;;5093979;28;20205;-63
2022/03/16 01:52:35;;;;;;;31.00;24.88;;;;;;;;;;5094816;28;20205;-63
2022/03/16 01:55:05;;;;;;;37.67;26.50;;;;;;;;;;5093820;28;20222;-64
2022/03/16 01:57:33;;;;;;;43.10;29.38;;;;;;;;;;5094113;28;20198;-63
2022/03/16 02:00:01;;;;;;;36.60;28.25;;;;;;;;;;5094090;28;20206;-64
2022/03/16 02:02:28;;;;;;;36.08;27.10;;;;;;;;;;5093809;28;20196;-64
2022/03/16 02:04:56;;;;;;;39.65;28.25;;;;;;;;;;5093952;28;20194;-63
2022/03/16 02:07:23;;;;;;;38.63;29.60;;;;;;;;;;5093617;28;20234;-63
2022/03/16 02:09:51;;;;;;;38.83;27.10;;;;;;;;;;5093509;28;20285;-64
2022/03/16 02:12:18;;;;;;;34.05;26.67;;;;;;;;;;5093885;28;20202;-63
2022/03/16 02:14:45;;;;;;;35.85;25.33;;;;;;;;;;5093755;28;20195;-64
2022/03/16 02:17:12;;;;;;;35.85;27.65;;;;;;;;;;5093536;28;20277;-64
2022/03/16 02:19:39;;;;;;;41.70;27.40;;;;;;;;;;5093422;28;20644;-63
2022/03/16 02:22:11;;;;;;;40.60;27.10;;;;;;;;;;5093544;28;20648;-63
2022/03/16 02:24:39;;;;;;;35.10;25.52;;;;;;;;;;5093406;28;20610;-63
2022/03/16 02:27:06;;;;;;;35.45;26.05;;;;;;;;;;5093695;28;20213;-63
2022/03/16 02:29:34;;;;;;;37.38;27.08;;;;;;;;;;5093801;28;20228;-63
2022/03/16 02:32:01;;;;;;;33.92;26.23;;;;;;;;;;5093689;28;20227;-63
2022/03/16 02:34:28;;;;;;;37.17;26.58;;;;;;;;;;5093236;28;20194;-63
2022/03/16 02:36:56;;;;;;;40.17;27.88;;;;;;;;;;5093652;28;20197;-63
2022/03/16 02:39:23;;;;;;;36.75;26.45;;;;;;;;;;5093303;28;20191;-63
2022/03/16 02:41:52;;;;;;;34.53;26.20;;;;;;;;;;5093565;28;20198;-63
2022/03/16 02:44:19;;;;;;;37.20;27.58;;;;;;;;;;5093165;28;20229;-63
2022/03/16 02:46:46;;;;;;;31.70;26.25;;;;;;;;;;5093406;28;20263;-63
2022/03/16 02:49:13;;;;;;;38.55;27.50;;;;;;;;;;5093003;28;20689;-63
2022/03/16 02:51:41;;;;;;;36.00;26.17;;;;;;;;;;5093143;28;20202;-63
2022/03/16 02:54:08;;;;;;;34.88;26.63;;;;;;;;;;5095330;28;20704;-63
2022/03/16 02:56:35;;;;;;;31.60;27.15;;;;;;;;;;5097378;28;20635;-63
2022/03/16 02:59:04;;;;;;;36.97;27.10;;;;;;;;;;5097453;28;20197;-63
2022/03/16 03:01:32;;;;;;;40.97;27.27;;;;;;;;;;5097756;28;20549;-63
2022/03/16 03:03:59;;;;;;;42.50;31.38;;;;;;;;;;5097336;28;20288;-63
2022/03/16 03:06:27;;;;;;;42.10;32.03;;;;;;;;;;5097730;28;20193;-63
2022/03/16 03:08:54;;;;;;;40.60;30.50;;;;;;;;;;5097350;28;20225;-63
2022/03/16 03:11:21;;;;;;;43.83;31.08;;;;;;;;;;5097029;28;20284;-63
2022/03/16 03:13:49;;;;;;;44.88;32.67;;;;;;;;;;5097217;28;20553;-63
2022/03/16 03:16:17;;;;;;;49.10;34.75;;;;;;;;;;5097213;28;20194;-63
2022/03/16 03:18:44;;;;;;;45.50;34.33;;;;;;;;;;5097181;28;20195;-63
2022/03/16 03:21:12;;;;;;;46.60;35.10;;;;;;;;;;5097086;28;20289;-64
2022/03/16 03:23:39;;;;;;;47.03;35.67;;;;;;;;;;5097026;28;20249;-63
2022/03/16 03:26:06;;;;;;;51.40;35.33;;;;;;;;;;5096673;28;20197;-63
2022/03/16 03:28:33;;;;;;;50.03;35.35;;;;;;;;;;5097419;28;20224;-64
2022/03/16 03:31:00;;;;;;;48.60;34.15;;;;;;;;;;5097025;28;20201;-64
2022/03/16 03:33:29;;;;;;;52.22;35.58;;;;;;;;;;5097067;28;20212;-64
2022/03/16 03:35:56;;;;;;;47.90;35.10;;;;;;;;;;5096802;28;20194;-64
2022/03/16 03:38:23;;;;;;;48.20;35.83;;;;;;;;;;5096876;28;20204;-63
2022/03/16 03:40:51;;;;;;;44.53;33.45;;;;;;;;;;5096700;28;20198;-63
2022/03/16 03:43:18;;;;;;;45.33;32.90;;;;;;;;;;5096719;28;20194;-63
2022/03/16 03:45:45;;;;;;;45.85;33.10;;;;;;;;;;5096564;28;20195;-64
2022/03/16 03:48:12;;;;;;;44.03;32.35;;;;;;;;;;5097222;28;20214;-63
2022/03/16 03:50:41;;;;;;;41.28;33.00;;;;;;;;;;5096192;28;20197;-64
2022/03/16 03:53:08;;;;;;;40.40;32.03;;;;;;;;;;5096197;28;20200;-63
2022/03/16 03:55:35;;;;;;;50.58;30.27;;;;;;;;;;5096790;28;20237;-63
2022/03/16 03:58:02;;;;;;;41.40;30.08;;;;;;;;;;5096408;28;20196;-63
2022/03/16 04:00:29;;;;;;;39.25;31.33;;;;;;;;;;5096723;28;20197;-63
2022/03/16 04:02:56;;;;;;;48.45;33.75;;;;;;;;;;5096350;28;20210;-63
2022/03/16 04:05:24;;;;;;;39.28;29.52;;;;;;;;;;5096241;28;20221;-64
2022/03/16 04:07:52;;;;;;;44.83;31.33;;;;;;;;;;5096656;28;20226;-63
2022/03/16 04:10:20;;;;;;;40.92;32.08;;;;;;;;;;5096060;28;20551;-64
2022/03/16 04:12:47;;;;;;;42.17;31.33;;;;;;;;;;5095876;28;20199;-63
2022/03/16 04:15:14;;;;;;;42.60;30.40;;;;;;;;;;5096017;28;20198;-64
2022/03/16 04:17:41;;;;;;;49.00;31.08;;;;;;;;;;5096046;28;20197;-64
2022/03/16 04:20:09;;;;;;;44.53;31.35;;;;;;;;;;5096349;28;20193;-63
2022/03/16 04:22:36;;;;;;;42.17;31.33;;;;;;;;;;5095635;28;20194;-63
2022/03/16 04:25:05;;;;;;;43.90;32.45;;;;;;;;;;5096006;28;20199;-64
2022/03/16 04:27:32;;;;;;;48.45;33.47;;;;;;;;;;5095908;28;20197;-63
2022/03/16 04:29:59;;;;;;;51.08;35.15;;;;;;;;;;5095988;28;20524;-63
2022/03/16 04:32:26;;;;;;;45.05;34.88;;;;;;;;;;5095435;28;20673;-63
2022/03/16 04:34:54;;;;;;;53.42;34.30;;;;;;;;;;5095782;28;20551;-63
2022/03/16 04:37:21;;;;;;;53.53;35.95;;;;;;;;;;5095343;28;20194;-63
2022/03/16 04:39:48;;;;;;;59.95;36.83;;;;;;;;;;5096412;28;20193;-63
2022/03/16 04:42:17;;;;;;;44.33;33.80;;;;;;;;;;5095485;28;20204;-63
2022/03/16 04:44:44;;;;;;;46.42;33.90;;;;;;;;;;5095530;28;20545;-64
2022/03/16 04:47:11;;;;;;;51.90;36.22;;;;;;;;;;5095417;28;20224;-64
2022/03/16 04:49:38;;;;;;;53.30;37.13;;;;;;;;;;5095029;28;20221;-64
2022/03/16 04:52:06;;;;;;;47.53;34.47;;;;;;;;;;5095413;28;20193;-63
2022/03/16 04:54:33;;;;;;;46.60;34.58;;;;;;;;;;5095145;28;20225;-63
2022/03/16 04:57:00;;;;;;;39.45;30.88;;;;;;;;;;5095357;28;20194;-64
2022/03/16 04:59:29;;;;;;;49.60;32.92;;;;;;;;;;5095137;28;20208;-64
2022/03/16 05:01:56;;;;;;;50.58;35.13;;;;;;;;;;5095075;28;20567;-64
2022/03/16 05:04:23;;;;;;;52.47;35.72;;;;;;;;;;5094881;28;20643;-64
2022/03/16 05:06:50;;;;;;;55.10;36.97;;;;;;;;;;5094675;28;20197;-63
2022/03/16 05:09:17;;;;;;;57.22;36.65;;;;;;;;;;5094706;28;20213;-63
2022/03/16 05:11:44;;;;;;;68.28;40.35;;;;;;;;;;5094677;28;20190;-67
2022/03/16 05:14:12;;;;;;;84.60;43.42;;;;;;;;;;5095043;28;20280;-64
2022/03/16 05:16:40;;;;;;;80.40;43.78;;;;;;;;;;5094224;28;20196;-64
2022/03/16 05:19:08;;;;;;;77.57;43.47;;;;;;;;;;5094872;28;20246;-65
2022/03/16 05:21:35;;;;;;;80.55;44.20;;;;;;;;;;5093888;28;20297;-65
2022/03/16 05:24:02;;;;;;;114.07;45.22;;;;;;;;;;5094433;28;20190;-65
2022/03/16 05:26:29;;;;;;;149.55;49.50;;;;;;;;;;5094539;28;20197;-65
2022/03/16 05:28:56;;;;;;;148.98;44.03;;;;;;;;;;5095356;28;20220;-64
2022/03/16 05:31:24;;;;;;;114.22;47.15;;;;;;;;;;5094968;28;20190;-65
2022/03/16 05:33:52;;;;;;;132.38;46.67;;;;;;;;;;5094569;28;20198;-64
2022/03/16 05:36:19;;;;;;;180.90;43.10;;;;;;;;;;5094525;28;20716;-64
2022/03/16 05:38:46;;;;;;;153.02;43.20;;;;;;;;;;5094506;28;20648;-65
2022/03/16 05:41:14;;;;;;;163.15;40.00;;;;;;;;;;5094117;28;20190;-65
2022/03/16 05:43:43;;;;;;;171.85;39.60;;;;;;;;;;5094105;28;20198;-64
2022/03/16 05:46:10;;;;;;;116.80;36.60;;;;;;;;;;5094009;28;20201;-65
2022/03/16 05:48:37;;;;;;;145.52;34.25;;;;;;;;;;5093943;28;20220;-64
2022/03/16 05:51:06;;;;;;;140.25;34.83;;;;;;;;;;5094124;28;20213;-65
2022/03/16 05:53:33;;;;;;;174.55;35.13;;;;;;;;;;5093919;28;20193;-65
2022/03/16 05:56:00;;;;;;;132.55;31.75;;;;;;;;;;5093691;28;20687;-65
2022/03/16 05:58:28;;;;;;;84.85;32.42;;;;;;;;;;5094442;28;20384;-65
2022/03/16 06:00:55;;;;;;;111.05;31.30;;;;;;;;;;5094934;28;20599;-65
2022/03/16 06:03:22;;;;;;;94.82;31.48;;;;;;;;;;5093938;28;20223;-65
2022/03/16 06:05:49;;;;;;;86.60;29.65;;;;;;;;;;5094053;28;20197;-65
2022/03/16 06:08:18;;;;;;;85.82;30.00;;;;;;;;;;5093921;28;20213;-65
2022/03/16 06:10:45;;;;;;;71.13;30.30;;;;;;;;;;5094140;28;20217;-65
2022/03/16 06:13:12;;;;;;;86.78;30.25;;;;;;;;;;5093865;28;20214;-65
2022/03/16 06:15:40;;;;;;;87.53;32.35;;;;;;;;;;5093946;28;20189;-65
2022/03/16 06:18:08;;;;;;;86.30;30.85;;;;;;;;;;5093751;28;20194;-65
2022/03/16 06:20:35;;;;;;;70.38;30.15;;;;;;;;;;5093751;28;20197;-65
2022/03/16 06:23:04;;;;;;;76.32;30.48;;;;;;;;;;5093686;28;20204;-65
2022/03/16 06:25:33;;;;;;;43.55;28.70;;;;;;;;;;5093606;28;20197;-65
2022/03/16 06:28:00;;;;;;;41.78;27.75;;;;;;;;;;5092549;28;20190;-65
2022/03/16 06:30:28;;;;;;;47.55;27.20;;;;;;;;;;5093635;28;20216;-64
2022/03/16 06:32:55;;;;;;;54.63;27.52;;;;;;;;;;5093403;28;20202;-65
2022/03/16 06:35:22;;;;;;;47.55;28.27;;;;;;;;;;5093557;28;20286;-69
2022/03/16 06:37:54;;;;;;;46.63;25.38;;;;;;;;;;5093699;28;20598;-65
2022/03/16 06:40:22;;;;;;;43.90;24.90;;;;;;;;;;5093781;28;20197;-65
2022/03/16 06:42:52;;;;;;;42.13;24.48;;;;;;;;;;5093503;28;20201;-65
2022/03/16 06:45:19;;;;;;;34.97;23.73;;;;;;;;;;5093829;28;20190;-66
2022/03/16 06:47:46;;;;;;;40.50;23.30;;;;;;;;;;5093533;28;20281;-66
2022/03/16 06:50:14;;;;;;;36.90;24.42;;;;;;;;;;5093323;28;20214;-65
2022/03/16 06:52:41;;;;;;;31.30;24.45;;;;;;;;;;5092957;28;20194;-65
2022/03/16 06:55:09;;;;;;;28.73;22.60;;;;;;;;;;5093075;28;20268;-65
2022/03/16 06:57:37;;;;;;;45.45;24.10;;;;;;;;;;5093346;28;20607;-66
2022/03/16 07:00:07;;;;;;;36.25;24.65;;;;;;;;;;5093436;28;20201;-65
2022/03/16 07:02:48;;;;;;;35.85;24.48;;;;;;;;;;5093506;28;20208;-66
2022/03/16 07:05:15;;;;;;;27.85;24.23;;;;;;;;;;5093391;28;20209;-65
2022/03/16 07:07:42;;;;;;;33.05;24.48;;;;;;;;;;5093155;28;20221;-66
2022/03/16 07:10:10;;;;;;;33.58;25.30;;;;;;;;;;5092950;28;20659;-66
2022/03/16 07:12:37;;;;;;;31.25;23.40;;;;;;;;;;5093220;28;20190;-66
2022/03/16 07:15:07;;;;;;;29.67;25.10;;;;;;;;;;5093765;28;20190;-66
2022/03/16 07:17:34;;;;;;;28.88;21.70;;;;;;;;;;5092779;28;20195;-65
2022/03/16 07:20:03;;;;;;;28.98;23.67;;;;;;;;;;5093268;28;20198;-66
2022/03/16 07:22:30;;;;;;;28.15;23.80;;;;;;;;;;5092779;28;20247;-66
2022/03/16 07:24:57;;;;;;;29.10;22.15;;;;;;;;;;5093556;28;20200;-65
2022/03/16 07:27:25;;;;;;;28.42;22.90;;;;;;;;;;5092963;28;20601;-65
2022/03/16 07:29:52;;;;;;;25.98;21.65;;;;;;;;;;5093762;28;20622;-65
2022/03/16 07:32:22;;;;;;;28.10;22.85;;;;;;;;;;5092621;28;20202;-66
2022/03/16 07:34:49;;;;;;;30.02;21.67;;;;;;;;;;5093037;28;20204;-66
2022/03/16 07:37:17;;;;;;;30.90;22.08;;;;;;;;;;5093069;28;20577;-64
2022/03/16 07:39:45;;;;;;;27.50;22.35;;;;;;;;;;5094908;28;20240;-65
2022/03/16 07:42:12;;;;;;;28.50;22.05;;;;;;;;;;5096784;28;20233;-66
2022/03/16 07:44:39;;;;;;;25.95;20.10;;;;;;;;;;5096470;28;20195;-64
2022/03/16 07:47:07;;;;;;;28.63;20.25;;;;;;;;;;5097182;28;20207;-63
2022/03/16 07:49:35;;;;;;;25.27;20.95;;;;;;;;;;5096430;28;20250;-64
2022/03/16 07:52:03;;;;;;;23.83;20.30;;;;;;;;;;5096262;28;20198;-64
2022/03/16 07:54:30;;;;;;;25.95;20.73;;;;;;;;;;5096289;28;20309;-65
2022/03/16 07:56:57;;;;;;;23.60;19.52;;;;;;;;;;5096595;28;20202;-64
2022/03/16 07:59:24;;;;;;;24.10;19.63;;;;;;;;;;5096227;28;20205;-64
2022/03/16 08:01:51;;;;;;;24.67;19.52;;;;;;;;;;5095934;28;20284;-64
2022/03/16 08:04:19;;;;;;;27.65;18.80;;;;;;;;;;5096154;28;20229;-64
2022/03/16 08:06:47;;;;;;;23.98;18.05;;;;;;;;;;5096247;28;20198;-64
2022/03/16 08:09:15;;;;;;;20.50;18.35;;;;;;;;;;5096335;28;20218;-64
2022/03/16 08:11:42;;;;;;;25.83;19.77;;;;;;;;;;5096726;28;20194;-64
2022/03/16 08:14:09;;;;;;;22.33;18.95;;;;;;;;;;5096173;28;20200;-66
2022/03/16 08:16:36;;;;;;;27.33;20.20;;;;;;;;;;5095889;28;20197;-64
2022/03/16 08:19:03;;;;;;;22.55;19.08;;;;;;;;;;5096429;28;20201;-64
2022/03/16 08:21:30;;;;;;;21.88;18.20;;;;;;;;;;5095612;28;20721;-65
2022/03/16 08:23:59;;;;;;;24.98;17.90;;;;;;;;;;5095622;28;20633;-65
2022/03/16 08:26:26;;;;;;;24.17;18.25;;;;;;;;;;5096022;28;20218;-64
2022/03/16 08:28:53;;;;;;;24.52;17.02;;;;;;;;;;5095294;28;20196;-64
2022/03/16 08:31:21;;;;;;;21.20;16.55;;;;;;;;;;5096131;28;20190;-64
2022/03/16 08:33:49;;;;;;;22.08;17.63;;;;;;;;;;5095562;28;20195;-65
2022/03/16 08:36:16;;;;;;;20.83;16.42;;;;;;;;;;5095531;28;20203;-65
2022/03/16 08:38:43;;;;;;;24.33;17.10;;;;;;;;;;5096100;28;20287;-65
2022/03/16 08:41:12;;;;;;;20.48;15.93;;;;;;;;;;5096007;28;20195;-65
2022/03/16 08:43:39;;;;;;;23.00;16.92;;;;;;;;;;5094846;28;20207;-65
2022/03/16 08:46:06;;;;;;;25.73;17.55;;;;;;;;;;5094976;28;20195;-65
2022/03/16 08:48:33;;;;;;;20.25;17.35;;;;;;;;;;5095300;28;20557;-65
2022/03/16 08:51:02;;;;;;;24.00;16.88;;;;;;;;;;5094753;28;20249;-65
2022/03/16 08:53:29;;;;;;;23.95;16.15;;;;;;;;;;5094862;28;20198;-66
2022/03/16 08:55:56;;;;;;;23.20;17.25;;;;;;;;;;5094907;28;20230;-65
2022/03/16 08:58:25;;;;;;;22.40;15.82;;;;;;;;;;5094707;28;20206;-65
2022/03/16 09:00:53;;;;;;;26.02;15.10;;;;;;;;;;5095056;28;20530;-65
2022/03/16 09:03:20;;;;;;;23.88;17.58;;;;;;;;;;5094803;28;20202;-65
2022/03/16 09:05:47;;;;;;;21.80;15.25;;;;;;;;;;5094878;28;20200;-65
2022/03/16 09:08:14;;;;;;;22.85;16.10;;;;;;;;;;5095458;28;20200;-65
2022/03/16 09:10:48;;;;;;;24.08;15.48;;;;;;;;;;5094747;28;20227;-64
2022/03/16 09:13:16;;;;;;;26.05;16.38;;;;;;;;;;5094709;28;20189;-64
2022/03/16 09:15:45;;;;;;;22.75;15.63;;;;;;;;;;5094533;28;20203;-65
2022/03/16 09:18:12;;;;;;;23.00;15.60;;;;;;;;;;5094900;28;20192;-65
2022/03/16 09:20:39;;;;;;;28.73;15.48;;;;;;;;;;5094832;28;20198;-66
2022/03/16 09:23:09;;;;;;;23.90;15.98;;;;;;;;;;5094672;28;20207;-66
2022/03/16 09:25:37;;;;;;;24.58;16.95;;;;;;;;;;5094245;28;20195;-65
2022/03/16 09:28:05;;;;;;;26.70;16.45;;;;;;;;;;5094299;28;20714;-65
2022/03/16 09:30:32;;;;;;;25.15;16.45;;;;;;;;;;5094432;28;20211;-65
2022/03/16 09:33:00;;;;;;;22.92;17.17;;;;;;;;;;5094240;28;20204;-65
2022/03/16 09:35:30;;;;;;;23.20;16.63;;;;;;;;;;5094413;28;20197;-65
2022/03/16 09:37:58;;;;;;;28.58;15.73;;;;;;;;;;5094158;28;20204;-65
2022/03/16 09:40:26;;;;;;;23.23;16.48;;;;;;;;;;5094356;28;20205;-65
2022/03/16 09:42:54;;;;;;;22.73;16.77;;;;;;;;;;5094281;28;20288;-65
2022/03/16 09:45:21;;;;;;;26.57;16.00;;;;;;;;;;5093872;28;20200;-65
2022/03/16 09:47:49;;;;;;;23.42;15.23;;;;;;;;;;5093948;28;20436;-65
2022/03/16 09:50:19;;;;;;;25.07;15.63;;;;;;;;;;5094088;28;20213;-65
2022/03/16 09:52:46;;;;;;;25.75;15.10;;;;;;;;;;5094282;28;20438;-65
2022/03/16 09:55:14;;;;;;;23.75;15.05;;;;;;;;;;5093596;28;20290;-66
2022/03/16 09:57:42;;;;;;;18.02;13.63;;;;;;;;;;5093222;28;20665;-65
2022/03/16 10:00:11;;;;;;;25.73;17.45;;;;;;;;;;5093514;28;20197;-65
2022/03/16 10:02:38;;;;;;;23.02;15.02;;;;;;;;;;5094313;28;20622;-65
2022/03/16 10:05:08;;;;;;;21.10;14.95;;;;;;;;;;5093590;28;20620;-66
2022/03/16 10:07:37;;;;;;;20.63;15.63;;;;;;;;;;5094180;28;20283;-66
2022/03/16 10:15:36;;;;;;;23.40;16.70;;;;;;;;;;5093735;28;20395;-66
2022/03/16 10:18:04;;;;;;;21.60;15.63;;;;;;;;;;5093840;28;20446;-66
2022/03/16 10:20:33;;;;;;;23.53;15.47;;;;;;;;;;5093694;28;20478;-65
2022/03/16 10:23:04;;;;;;;22.40;14.77;;;;;;;;;;5093379;28;20948;-65
2022/03/16 10:25:32;;;;;;;19.87;15.00;;;;;;;;;;5093928;28;20552;-65
2022/03/16 10:28:12;;;;;;;30.77;16.53;;;;;;;;;;5093744;28;20443;-65
2022/03/16 10:30:40;;;;;;;27.47;15.43;;;;;;;;;;5093940;28;20467;-65
2022/03/16 10:33:08;;;;;;;23.43;15.20;;;;;;;;;;5093646;28;20447;-66
2022/03/16 10:35:35;;;;;;;24.23;15.30;;;;;;;;;;5093528;28;20444;-65
2022/03/16 10:38:12;;;;;;;22.80;15.40;;;;;;;;;;5093270;28;20292;-66
2022/03/16 10:40:39;;;;;;;21.40;15.60;;;;;;;;;;5094050;28;20435;-66
2022/03/16 10:48:57;;;;;;;24.60;16.07;;;;;;;;;;5093651;28;20403;-65
2022/03/16 10:51:25;;;;;;;25.37;15.20;;;;;;;;;;5093158;28;20463;-65
2022/03/16 10:53:53;;;;;;;22.37;15.10;;;;;;;;;;5093175;28;20456;-65
2022/03/16 10:56:23;;;;;;;26.63;16.60;;;;;;;;;;5093645;28;20431;-65
2022/03/16 10:58:52;;;;;;;25.40;17.27;;;;;;;;;;5093608;28;20488;-65
2022/03/16 11:01:19;;;;;;;24.83;17.53;;;;;;;;;;5093307;28;20448;-65
2022/03/16 11:03:47;;;;;;;22.23;17.50;;;;;;;;;;5093151;28;20448;-65
2022/03/16 11:06:15;;;;;;;28.23;16.30;;;;;;;;;;5093029;28;20475;-65
2022/03/16 11:08:42;;;;;;;26.77;18.07;;;;;;;;;;5093678;28;20443;-65
2022/03/16 11:13:53;;;;;;;26.10;17.50;;;;;;;;;;5093221;28;20423;-65
2022/03/16 11:16:21;;;;;;;23.43;16.57;;;;;;;;;;5096880;28;20446;-64
2022/03/16 11:18:49;;;;;;;25.10;18.27;;;;;;;;;;5097220;28;20447;-65
2022/03/16 11:21:18;;;;;;;24.17;17.23;;;;;;;;;;5096775;28;20488;-65
2022/03/16 11:26:38;;;;;;;25.53;15.73;;;;;;;;;;5096778;28;20507;-65
2022/03/16 11:29:14;;;;;;;23.07;17.47;;;;;;;;;;5097893;28;20774;-65
2022/03/16 11:31:43;;;;;;;25.00;15.27;;;;;;;;;;5097216;28;20463;-65
2022/03/16 11:34:11;;;;;;;22.10;16.63;;;;;;;;;;5096908;28;20492;-65
2022/03/16 11:36:40;;;;;;;23.17;15.50;;;;;;;;;;5096715;28;20441;-65
2022/03/16 11:39:15;;;;;;;20.87;15.90;;;;;;;;;;5096490;28;20451;-65
2022/03/16 11:41:51;;;;;;;23.30;16.13;;;;;;;;;;5097029;28;20780;-65
2022/03/16 11:44:26;;;;;;;22.03;15.03;;;;;;;;;;5096650;28;20432;-65
2022/03/16 11:46:54;;;;;;;23.17;17.33;;;;;;;;;;5097437;28;20449;-65
2022/03/16 11:49:28;;;;;;;21.67;16.10;;;;;;;;;;5096282;28;20443;-65
2022/03/16 11:51:59;;;;;;;27.40;16.40;;;;;;;;;;5096145;28;20463;-65
2022/03/16 11:54:40;;;;;;;18.93;14.67;;;;;;;;;;5096725;28;20498;-65
2022/03/16 11:57:09;;;;;;;21.60;14.87;;;;;;;;;;5096539;28;20436;-65
2022/03/16 11:59:40;;;;;;;20.73;15.20;;;;;;;;;;5096154;28;20479;-65
2022/03/16 12:02:25;;;;;;;20.50;15.87;;;;;;;;;;5096526;28;20428;-65
2022/03/16 12:04:58;;;;;;;20.10;14.50;;;;;;;;;;5096086;28;20512;-66
2022/03/16 12:07:28;;;;;;;15.83;14.00;;;;;;;;;;5096361;28;20425;-65
2022/03/16 12:09:59;;;;;;;19.10;13.70;;;;;;;;;;5096733;28;20475;-65
2022/03/16 12:15:21;;;;;;;18.43;13.87;;;;;;;;;;5095848;28;20481;-65
2022/03/16 12:18:11;;;;;;;18.77;12.23;;;;;;;;;;5095776;28;20440;-66
2022/03/16 12:20:39;;;;;;;16.40;13.43;;;;;;;;;;5096596;28;20437;-65
2022/03/16 12:23:10;;;;;;;15.57;13.53;;;;;;;;;;5095933;28;20794;-66
2022/03/16 12:25:39;;;;;;;16.57;13.33;;;;;;;;;;5095931;28;20424;-66
2022/03/16 12:31:02;;;;;;;16.50;12.90;;;;;;;;;;5070577;28;21034;-65
2022/03/16 12:33:30;;;;;;;16.93;14.10;;;;;;;;;;5095715;28;20477;-66
2022/03/16 12:36:00;;;;;;;19.73;14.03;;;;;;;;;;5095339;28;20939;-68
2022/03/16 12:38:29;;;;;;;15.63;13.03;;;;;;;;;;5096026;28;20440;-65
2022/03/16 12:43:43;;;;;;;16.30;13.50;;;;;;;;;;5095564;28;20399;-65
2022/03/16 12:46:13;;;;;;;17.23;13.50;;;;;;;;;;5095539;28;20448;-65
2022/03/16 12:48:41;;;;;;;17.30;13.10;;;;;;;;;;5095560;28;20432;-65
2022/03/16 12:51:09;;;;;;;17.83;14.03;;;;;;;;;;5094734;28;20482;-65
2022/03/16 12:53:39;;;;;;;14.80;12.57;;;;;;;;;;5095224;28;20445;-65
2022/03/16 12:56:10;;;;;;;17.07;14.10;;;;;;;;;;5055225;28;20441;-65
2022/03/16 12:58:37;;;;;;;15.13;13.07;;;;;;;;;;5054642;28;20438;-66
2022/03/16 13:01:06;;;;;;;17.30;14.63;;;;;;;;;;5054599;28;20538;-65
2022/03/16 13:03:33;;;;;;;17.70;13.13;;;;;;;;;;5054781;28;20451;-65
2022/03/16 13:06:13;;;;;;;17.30;14.10;;;;;;;;;;5054779;28;20788;-65
2022/03/16 13:08:42;;;;;;;22.70;18.53;;;;;;;;;;5054794;28;20434;-65
2022/03/16 13:11:15;;;;;;;24.60;20.07;;;;;;;;;;5054741;28;20830;-65
2022/03/16 13:13:46;;;;;;;21.23;14.90;;;;;;;;;;5054640;28;20513;-65
2022/03/16 13:16:30;;;;;;;16.43;14.67;;;;;;;;;;5054214;28;20469;-66
2022/03/16 13:18:57;;;;;;;17.10;13.80;;;;;;;;;;5054542;28;20454;-66
2022/03/16 13:21:25;;;;;;;15.93;13.30;;;;;;;;;;5055062;28;20448;-65
2022/03/16 13:24:01;;;;;;;14.30;11.70;;;;;;;;;;5054438;28;20446;-65
2022/03/16 13:26:29;;;;;;;16.23;12.33;;;;;;;;;;5054386;28;20525;-65
2022/03/16 13:28:57;;;;;;;13.30;11.67;;;;;;;;;;5054383;28;20499;-65
2022/03/16 13:31:27;;;;;;;15.20;12.83;;;;;;;;;;5054269;28;20481;-65
2022/03/16 13:33:55;;;;;;;15.30;11.43;;;;;;;;;;5054204;28;20431;-65
2022/03/16 13:36:32;;;;;;;13.80;12.30;;;;;;;;;;5054645;28;20437;-65
2022/03/16 13:38:59;;;;;;;17.40;13.70;;;;;;;;;;5053801;28;20423;-65
2022/03/16 13:41:27;;;;;;;16.50;13.93;;;;;;;;;;5053689;28;20453;-65
2022/03/16 13:44:04;;;;;;;14.30;11.73;;;;;;;;;;5053749;28;20452;-65
2022/03/16 13:46:39;;;;;;;17.70;13.47;;;;;;;;;;5054146;28;20455;-65
2022/03/16 13:49:15;;;;;;;20.60;14.97;;;;;;;;;;5053828;28;20469;-65
2022/03/16 13:52:00;;;;;;;17.83;14.97;;;;;;;;;;5054026;28;20480;-65
2022/03/16 13:54:28;;;;;;;20.47;14.80;;;;;;;;;;5067580;28;20908;-64
2022/03/16 13:56:55;;;;;;;21.47;15.23;;;;;;;;;;5094423;28;20447;-65
2022/03/16 13:59:22;;;;;;;17.03;14.57;;;;;;;;;;5093843;28;20440;-65
2022/03/16 14:01:53;;;;;;;18.27;14.70;;;;;;;;;;5094287;28;20455;-66
2022/03/16 14:04:21;;;;;;;17.30;13.90;;;;;;;;;;5093961;28;20426;-66
2022/03/16 14:06:54;;;;;;;15.90;13.60;;;;;;;;;;5094448;28;20536;-65
2022/03/16 14:09:24;;;;;;;17.00;13.47;;;;;;;;;;5094017;28;20786;-65
2022/03/16 14:11:55;;;;;;;17.83;13.87;;;;;;;;;;5094085;28;20999;-67
2022/03/16 14:14:32;;;;;;;16.73;14.37;;;;;;;;;;5093465;28;20483;-65
2022/03/16 14:17:04;;;;;;;21.10;13.97;;;;;;;;;;5093914;28;20432;-65
2022/03/16 14:19:37;;;;;;;16.13;13.23;;;;;;;;;;5093684;28;20445;-65
2022/03/16 14:22:08;;;;;;;16.60;12.77;;;;;;;;;;5093836;28;20438;-64
2022/03/16 14:24:35;;;;;;;17.47;13.87;;;;;;;;;;5093543;28;20448;-64
2022/03/16 14:27:18;;;;;;;14.03;12.37;;;;;;;;;;5093729;28;20872;-66
2022/03/16 14:29:48;;;;;;;19.00;16.10;;;;;;;;;;5093559;28;20506;-64
2022/03/16 14:32:17;;;;;;;20.17;15.70;;;;;;;;;;5093630;28;20978;-65
2022/03/16 14:34:44;;;;;;;13.83;11.73;;;;;;;;;;5093563;28;20523;-66
2022/03/16 14:37:18;;;;;;;16.27;12.50;;;;;;;;;;5093324;28;20446;-64
2022/03/16 14:39:45;;;;;;;15.63;12.50;;;;;;;;;;5093530;28;20475;-65
2022/03/16 14:42:12;;;;;;;14.20;12.37;;;;;;;;;;5093370;28;20977;-65
2022/03/16 14:44:45;;;;;;;17.13;13.63;;;;;;;;;;5093261;28;20437;-66
2022/03/16 14:47:12;;;;;;;16.50;12.47;;;;;;;;;;5093316;28;20417;-66
2022/03/16 14:49:41;;;;;;;18.87;13.63;;;;;;;;;;5094636;28;20442;-64